Terminal Aerodrome Forecast
Issued by NWS

Home | Current Version | Previous Version | Text Only | Print | Product List | Glossary On
Versions: 1 2 3 4 5 6 7 8 9 10 11 12 13 14
000
FTUS45 KABQ 291748 CCA
TAFROW
TAF COR
KROW 291748Z 2918/3018 35022G30KT P6SM VCSH SCT025 BKN045
      TEMPO 2918/2921 5SM -RA BKN025
     FM292100 35012G20KT P6SM BKN060
     FM300100 22006KT P6SM SCT070=

USA.gov is the U.S. government's official web portal to all federal, state and local government web resources and services.